Terminal Aerodrome Forecast
Issued by NWS Nashville, TN

Home | Current Version | Previous Version | Text Only | Print | Product List | Glossary On
Versions: 1 2 3 4 5 6 7 8 9 10 11 12 13 14 15
000
FTUS44 KOHX 291420 AAA
TAFCSV
TAF AMD
KCSV 291420Z 2914/3012 18006KT P6SM SCT020
      TEMPO 2914/2918 BKN020
     FM300000 00000KT P6SM OVC150=

USA.gov is the U.S. government's official web portal to all federal, state and local government web resources and services.